createdAt,value
2022-09-20T00:01:24.150Z,9.70
2022-09-20T00:03:55.574Z,9.60
2022-09-20T00:06:26.675Z,9.60
2022-09-20T00:08:55.084Z,9.50
2022-09-20T00:11:25.138Z,9.50
2022-09-20T00:13:56.329Z,9.40
2022-09-20T00:16:27.247Z,9.40
2022-09-20T00:18:58.472Z,9.40
2022-09-20T00:21:28.713Z,9.50
2022-09-20T00:23:57.776Z,9.50
2022-09-20T00:26:26.775Z,9.40
2022-09-20T00:28:55.408Z,9.40
2022-09-20T00:31:23.500Z,9.50
2022-09-20T00:34:11.984Z,9.60
2022-09-20T00:36:41.407Z,9.60
2022-09-20T00:39:12.469Z,9.60
2022-09-20T00:41:40.460Z,9.60
2022-09-20T00:44:42.660Z,9.70
2022-09-20T00:47:16.763Z,9.70
2022-09-20T00:49:44.988Z,9.50
2022-09-20T00:52:14.395Z,9.50
2022-09-20T00:54:42.869Z,9.50
2022-09-20T00:57:11.000Z,9.60
2022-09-20T00:59:42.571Z,9.60
2022-09-20T01:02:15.564Z,9.60
2022-09-20T01:04:44.788Z,9.60
2022-09-20T01:07:18.397Z,9.60
2022-09-20T01:09:46.921Z,9.60
2022-09-20T01:12:19.176Z,9.60
2022-09-20T01:14:49.667Z,9.50
2022-09-20T01:17:19.321Z,9.60
2022-09-20T01:19:54.011Z,9.50
2022-09-20T01:22:27.813Z,9.60
2022-09-20T01:25:02.030Z,9.50
2022-09-20T01:27:44.162Z,9.50
2022-09-20T01:30:17.570Z,9.50
2022-09-20T01:33:02.438Z,9.50
2022-09-20T01:35:31.280Z,9.50
2022-09-20T01:38:13.254Z,9.40
2022-09-20T01:40:47.832Z,9.50
2022-09-20T01:43:27.129Z,9.40
2022-09-20T01:45:55.425Z,9.40
2022-09-20T01:48:32.952Z,9.40
2022-09-20T01:51:42.409Z,9.50
2022-09-20T01:54:40.680Z,9.40
2022-09-20T01:57:46.310Z,9.50
2022-09-20T02:00:19.573Z,9.40
2022-09-20T02:03:32.621Z,9.40
2022-09-20T02:06:25.926Z,9.30
2022-09-20T02:09:40.679Z,9.40
2022-09-20T02:12:53.899Z,9.30
2022-09-20T02:15:55.373Z,9.30
2022-09-20T02:18:39.029Z,9.30
2022-09-20T02:21:22.029Z,9.30
2022-09-20T02:23:57.224Z,9.30
2022-09-20T02:26:42.213Z,9.20
2022-09-20T02:29:24.513Z,9.20
2022-09-20T02:32:10.097Z,9.30
2022-09-20T02:35:07.506Z,9.30
2022-09-20T02:37:54.656Z,9.40
2022-09-20T02:40:35.844Z,9.40
2022-09-20T02:43:12.638Z,9.30
2022-09-20T02:45:45.696Z,9.20
2022-09-20T02:48:19.002Z,9.20
2022-09-20T02:50:52.563Z,9.20
2022-09-20T02:53:31.987Z,9.20
2022-09-20T02:56:11.016Z,9.20
2022-09-20T02:58:50.428Z,9.20
2022-09-20T03:01:32.008Z,9.10
2022-09-20T03:04:13.058Z,9.20
2022-09-20T03:06:48.382Z,9.20
2022-09-20T03:09:36.183Z,9.20
2022-09-20T03:12:13.278Z,9.20
2022-09-20T03:14:48.026Z,9.20
2022-09-20T03:17:24.197Z,9.20
2022-09-20T03:20:08.194Z,9.20
2022-09-20T03:22:44.890Z,9.30
2022-09-20T03:25:40.440Z,9.30
2022-09-20T03:28:19.102Z,9.30
2022-09-20T03:30:58.543Z,9.30
2022-09-20T03:33:36.751Z,9.30
2022-09-20T03:36:24.581Z,9.30
2022-09-20T03:39:09.763Z,9.20
2022-09-20T03:41:52.944Z,9.20
2022-09-20T03:44:45.767Z,9.20
2022-09-20T03:47:25.638Z,9.20
2022-09-20T03:50:17.683Z,9.30
2022-09-20T03:53:07.788Z,9.20
2022-09-20T03:56:01.912Z,9.20
2022-09-20T03:58:50.841Z,9.20
2022-09-20T04:01:39.960Z,9.20
2022-09-20T04:04:17.946Z,9.20
2022-09-20T04:07:00.594Z,9.20
2022-09-20T04:10:08.831Z,9.20
2022-09-20T04:12:50.261Z,9.30
2022-09-20T04:15:28.349Z,9.30
2022-09-20T04:18:02.796Z,9.20
2022-09-20T04:20:38.861Z,9.30
2022-09-20T04:23:17.239Z,9.40
2022-09-20T04:25:51.460Z,9.20
2022-09-20T04:28:26.994Z,9.30
2022-09-20T04:31:05.465Z,9.30
2022-09-20T04:33:40.907Z,9.20
2022-09-20T04:36:29.514Z,9.30
2022-09-20T04:39:05.262Z,9.30
2022-09-20T04:42:08.145Z,9.20
2022-09-20T04:45:12.673Z,9.30
2022-09-20T04:48:17.573Z,9.60
2022-09-20T04:51:12.353Z,9.30
2022-09-20T04:54:14.555Z,9.30
2022-09-20T04:56:59.444Z,9.40
2022-09-20T04:59:46.071Z,9.40
2022-09-20T05:02:42.998Z,9.50
2022-09-20T05:05:41.302Z,9.50
2022-09-20T05:08:40.691Z,9.50
2022-09-20T05:11:54.208Z,9.40
2022-09-20T05:14:37.703Z,9.50
2022-09-20T05:17:21.705Z,9.50
2022-09-20T05:20:07.511Z,9.40
2022-09-20T05:23:19.295Z,9.50
2022-09-20T05:26:08.420Z,9.50
2022-09-20T05:28:45.809Z,9.50
2022-09-20T05:31:22.691Z,9.50
2022-09-20T05:33:57.688Z,9.50
2022-09-20T05:36:37.647Z,9.50
2022-09-20T05:39:20.080Z,9.60
2022-09-20T05:41:54.629Z,9.60
2022-09-20T05:44:32.248Z,9.80
2022-09-20T05:47:12.580Z,9.70
2022-09-20T05:49:51.513Z,10.00
2022-09-20T05:52:37.974Z,10.20
2022-09-20T05:55:38.739Z,10.10
2022-09-20T05:58:47.116Z,10.20
2022-09-20T06:01:21.890Z,10.30
2022-09-20T06:03:55.861Z,10.00
2022-09-20T06:06:32.722Z,10.00
2022-09-20T06:09:19.963Z,10.10
2022-09-20T06:12:02.875Z,10.10
2022-09-20T06:14:41.091Z,10.10
2022-09-20T06:17:22.182Z,10.00
2022-09-20T06:19:59.155Z,10.10
2022-09-20T06:22:30.847Z,10.10
2022-09-20T06:25:05.427Z,10.60
2022-09-20T06:27:38.143Z,10.50
2022-09-20T06:30:14.734Z,10.30
2022-09-20T06:32:58.326Z,10.50
2022-09-20T06:35:34.454Z,10.30
2022-09-20T06:38:45.503Z,10.30
2022-09-20T06:41:30.607Z,10.60
2022-09-20T06:44:00.899Z,10.40
2022-09-20T06:46:29.968Z,10.70
2022-09-20T06:49:01.081Z,10.70
2022-09-20T06:51:35.290Z,10.50
2022-09-20T06:54:03.568Z,10.50
2022-09-20T06:56:36.923Z,10.50
2022-09-20T06:59:06.068Z,10.80
2022-09-20T07:01:34.175Z,10.20
2022-09-20T07:04:03.030Z,10.50
2022-09-20T07:06:31.039Z,10.50
2022-09-20T07:08:59.174Z,10.50
2022-09-20T07:11:30.597Z,10.60
2022-09-20T07:13:59.984Z,10.80
2022-09-20T07:16:27.960Z,10.70
2022-09-20T07:18:56.900Z,10.70
2022-09-20T07:21:25.415Z,11.00
2022-09-20T07:23:54.087Z,11.30
2022-09-20T07:26:26.576Z,11.00
2022-09-20T07:28:55.235Z,10.80
2022-09-20T07:31:26.990Z,11.20
2022-09-20T07:33:55.491Z,11.00
2022-09-20T07:36:24.089Z,11.40
2022-09-20T07:38:53.690Z,10.70
2022-09-20T07:41:24.817Z,11.00
2022-09-20T07:43:53.121Z,11.20
2022-09-20T07:46:25.505Z,11.40
2022-09-20T07:48:53.529Z,11.20
2022-09-20T07:51:21.465Z,11.80
2022-09-20T07:53:49.509Z,11.40
2022-09-20T07:56:18.429Z,11.50
2022-09-20T07:58:52.131Z,10.80
2022-09-20T08:01:21.149Z,11.20
2022-09-20T08:03:51.192Z,11.20
2022-09-20T08:06:21.431Z,11.60
2022-09-20T08:08:49.713Z,12.00
2022-09-20T08:11:20.131Z,12.40
2022-09-20T08:14:07.442Z,12.50
2022-09-20T08:16:40.427Z,12.50
2022-09-20T08:19:12.835Z,12.80
2022-09-20T08:21:41.112Z,12.70
2022-09-20T08:24:09.320Z,12.80
2022-09-20T08:26:37.432Z,13.40
2022-09-20T08:29:06.381Z,13.30
2022-09-20T08:31:36.966Z,13.50
2022-09-20T08:34:11.887Z,13.60
2022-09-20T08:36:42.480Z,13.40
2022-09-20T08:42:08.898Z,12.70
2022-09-20T08:44:47.876Z,12.40
2022-09-20T08:47:21.226Z,12.10
2022-09-20T08:49:56.893Z,12.40
2022-09-20T08:52:36.305Z,12.50
2022-09-20T08:55:13.742Z,12.80
2022-09-20T08:57:41.876Z,13.00
2022-09-20T09:00:18.682Z,12.80
2022-09-20T09:02:47.077Z,12.80
2022-09-20T09:05:34.975Z,12.50
2022-09-20T09:08:08.915Z,13.10
2022-09-20T09:10:42.877Z,13.10
2022-09-20T09:13:21.504Z,13.10
2022-09-20T09:15:55.202Z,12.90
2022-09-20T09:18:31.706Z,13.30
2022-09-20T09:21:04.290Z,13.30
2022-09-20T09:23:41.442Z,12.60
2022-09-20T09:26:18.651Z,12.50
2022-09-20T09:28:46.779Z,12.50
2022-09-20T09:31:25.802Z,12.50
2022-09-20T09:33:54.035Z,12.40
2022-09-20T09:36:25.766Z,12.40
2022-09-20T09:39:16.476Z,12.50
2022-09-20T09:41:46.413Z,12.20
2022-09-20T09:44:22.984Z,12.50
2022-09-20T09:46:51.557Z,12.90
2022-09-20T09:49:21.312Z,13.10
2022-09-20T09:52:06.003Z,13.40
2022-09-20T09:54:36.713Z,13.20
2022-09-20T09:57:19.233Z,13.20
2022-09-20T10:00:03.425Z,13.20
2022-09-20T10:02:55.653Z,13.00
2022-09-20T10:05:29.679Z,12.60
2022-09-20T10:08:11.044Z,13.10
2022-09-20T10:10:51.788Z,13.60
2022-09-20T10:13:26.963Z,12.90
2022-09-20T10:16:02.063Z,13.00
2022-09-20T10:18:42.354Z,12.70
2022-09-20T10:21:25.019Z,13.20
2022-09-20T10:24:09.472Z,13.20
2022-09-20T10:26:54.262Z,13.30
2022-09-20T10:29:34.555Z,13.90
2022-09-20T10:32:15.337Z,14.00
2022-09-20T10:35:02.005Z,14.20
2022-09-20T10:37:40.133Z,14.00
2022-09-20T10:40:21.668Z,13.60
2022-09-20T10:43:09.685Z,13.60
2022-09-20T10:46:08.803Z,13.70
2022-09-20T10:48:35.537Z,14.00
2022-09-20T10:51:11.154Z,14.40
2022-09-20T10:53:49.608Z,14.30
2022-09-20T10:56:27.630Z,13.60
2022-09-20T10:59:27.180Z,13.80
2022-09-20T11:02:21.484Z,14.50
2022-09-20T11:05:18.357Z,15.00
2022-09-20T11:07:56.170Z,15.50
2022-09-20T11:10:29.871Z,15.70
2022-09-20T11:13:03.008Z,15.20
2022-09-20T11:15:36.178Z,14.90
2022-09-20T11:18:09.777Z,15.30
2022-09-20T11:20:44.294Z,14.70
2022-09-20T11:23:18.237Z,14.80
2022-09-20T11:25:51.744Z,15.00
2022-09-20T11:28:26.077Z,15.00
2022-09-20T11:31:01.799Z,15.00
2022-09-20T11:33:36.965Z,15.10
2022-09-20T11:36:12.026Z,15.00
2022-09-20T11:38:46.117Z,14.70
2022-09-20T11:41:20.419Z,14.30
2022-09-20T11:43:50.482Z,14.30
2022-09-20T11:46:26.688Z,14.50
2022-09-20T11:49:01.202Z,15.20
2022-09-20T11:52:00.157Z,15.50
2022-09-20T11:55:01.916Z,15.60
2022-09-20T11:57:30.680Z,16.00
2022-09-20T12:00:04.115Z,16.50
2022-09-20T12:02:47.046Z,15.30
2022-09-20T12:05:30.244Z,15.70
2022-09-20T12:08:00.981Z,16.00
2022-09-20T12:10:34.193Z,15.60
2022-09-20T12:13:05.659Z,15.40
2022-09-20T12:15:39.148Z,15.80
2022-09-20T12:18:28.820Z,16.10
2022-09-20T12:21:21.475Z,16.50
2022-09-20T12:24:23.658Z,16.80
2022-09-20T12:26:56.366Z,15.90
2022-09-20T12:29:57.342Z,15.60
2022-09-20T12:32:57.891Z,15.60
2022-09-20T12:36:16.583Z,15.20
2022-09-20T12:39:00.045Z,14.80
2022-09-20T12:41:29.441Z,15.00
2022-09-20T12:44:07.689Z,14.80
2022-09-20T12:46:43.730Z,15.10
2022-09-20T12:49:45.954Z,15.10
2022-09-20T12:52:48.632Z,15.50
2022-09-20T12:55:55.151Z,15.90
2022-09-20T12:58:39.708Z,15.90
2022-09-20T13:01:31.377Z,16.20
2022-09-20T13:04:37.094Z,16.00
2022-09-20T13:07:49.303Z,15.70
2022-09-20T13:10:37.605Z,15.80
2022-09-20T13:13:28.204Z,16.50
2022-09-20T13:15:57.477Z,16.90
2022-09-20T13:18:27.420Z,16.80
2022-09-20T13:20:58.343Z,17.20
2022-09-20T13:23:30.491Z,16.50
2022-09-20T13:25:59.489Z,16.20
2022-09-20T13:28:35.881Z,16.00
2022-09-20T13:31:28.859Z,15.70
2022-09-20T13:34:13.331Z,15.90
2022-09-20T13:36:42.230Z,16.00
2022-09-20T13:39:25.709Z,15.70
2022-09-20T13:41:54.024Z,15.30
2022-09-20T13:44:22.069Z,15.30
2022-09-20T13:46:50.077Z,15.00
2022-09-20T13:49:23.807Z,14.90
2022-09-20T13:51:52.694Z,12.10
2022-09-20T13:54:28.331Z,11.30
2022-09-20T13:56:59.858Z,11.50
2022-09-20T13:59:33.166Z,11.80
2022-09-20T14:02:01.807Z,11.70
2022-09-20T14:04:32.096Z,12.90
2022-09-20T14:07:08.244Z,12.80
2022-09-20T14:09:40.036Z,12.60
2022-09-20T14:12:08.905Z,12.70
2022-09-20T14:14:37.223Z,12.80
2022-09-20T14:17:09.870Z,12.80
2022-09-20T14:19:41.854Z,12.60
2022-09-20T14:22:18.946Z,12.50
2022-09-20T14:25:01.100Z,12.70
2022-09-20T14:27:31.411Z,12.50
2022-09-20T14:30:00.171Z,12.60
2022-09-20T14:32:40.761Z,12.60
2022-09-20T14:35:16.602Z,12.30
2022-09-20T14:37:47.747Z,12.90
2022-09-20T14:40:24.861Z,13.10
2022-09-20T14:42:56.689Z,13.20
2022-09-20T14:45:28.397Z,13.30
2022-09-20T14:48:00.190Z,13.30
2022-09-20T14:50:31.260Z,13.30
2022-09-20T14:53:26.900Z,13.70
2022-09-20T14:56:10.455Z,13.90
2022-09-20T14:59:08.350Z,14.10
2022-09-20T15:01:42.107Z,13.90
2022-09-20T15:04:11.746Z,13.80
2022-09-20T15:06:40.306Z,13.90
2022-09-20T15:09:10.667Z,13.60
2022-09-20T15:11:40.873Z,13.50
2022-09-20T15:14:09.401Z,13.20
2022-09-20T15:16:37.596Z,13.10
2022-09-20T15:19:06.186Z,13.00
2022-09-20T15:21:37.361Z,13.20
2022-09-20T15:24:05.699Z,13.50
2022-09-20T15:26:34.293Z,13.20
2022-09-20T15:29:03.933Z,13.10
2022-09-20T15:31:34.748Z,13.10
2022-09-20T15:34:02.913Z,13.10
2022-09-20T15:36:32.154Z,13.10
2022-09-20T15:39:00.419Z,13.00
2022-09-20T15:41:32.611Z,12.90
2022-09-20T15:44:01.585Z,13.00
2022-09-20T15:46:31.191Z,13.10
2022-09-20T15:49:03.009Z,13.30
2022-09-20T15:51:31.278Z,13.00
2022-09-20T15:54:01.600Z,13.00
2022-09-20T15:56:31.706Z,13.00
2022-09-20T15:59:01.542Z,13.00
2022-09-20T16:01:33.211Z,12.80
2022-09-20T16:04:01.559Z,12.70
2022-09-20T16:06:33.732Z,12.60
2022-09-20T16:09:01.763Z,12.60
2022-09-20T16:11:29.911Z,12.60
2022-09-20T16:13:59.968Z,12.50
2022-09-20T16:16:39.773Z,12.40
2022-09-20T16:19:21.095Z,12.40
2022-09-20T16:21:55.200Z,12.40
2022-09-20T16:24:26.146Z,12.50
2022-09-20T16:26:54.930Z,12.50
2022-09-20T16:29:25.102Z,12.50
2022-09-20T16:31:55.419Z,12.40
2022-09-20T16:34:29.832Z,12.40
2022-09-20T16:37:00.281Z,12.40
2022-09-20T16:39:29.535Z,12.60
2022-09-20T16:42:05.221Z,12.70
2022-09-20T16:44:34.740Z,12.70
2022-09-20T16:47:08.925Z,12.40
2022-09-20T16:49:37.766Z,12.50
2022-09-20T16:52:06.723Z,12.50
2022-09-20T16:54:34.971Z,12.70
2022-09-20T16:57:02.976Z,12.80
2022-09-20T16:59:31.592Z,12.80
2022-09-20T17:02:00.106Z,12.80
2022-09-20T17:04:30.230Z,12.80
2022-09-20T17:06:58.249Z,12.80
2022-09-20T17:09:28.652Z,12.80
2022-09-20T17:12:00.095Z,12.70
2022-09-20T17:14:28.190Z,12.80
2022-09-20T17:16:56.841Z,12.90
2022-09-20T17:19:27.018Z,12.90
2022-09-20T17:21:56.999Z,12.90
2022-09-20T17:24:25.193Z,12.80
2022-09-20T17:26:56.402Z,12.70
2022-09-20T17:29:25.104Z,12.80
2022-09-20T17:31:56.865Z,12.90
2022-09-20T17:34:28.168Z,12.90
2022-09-20T17:36:57.684Z,12.80
2022-09-20T17:39:25.968Z,12.90
2022-09-20T17:41:54.005Z,12.90
2022-09-20T17:44:22.679Z,12.90
2022-09-20T17:46:52.234Z,12.80
2022-09-20T17:49:21.968Z,12.70
2022-09-20T17:51:51.599Z,12.70
2022-09-20T17:54:21.978Z,12.70
2022-09-20T17:56:51.804Z,12.70
2022-09-20T17:59:21.182Z,12.80
2022-09-20T18:01:51.252Z,12.70
2022-09-20T18:04:20.928Z,12.60
2022-09-20T18:06:51.669Z,12.60
2022-09-20T18:09:22.870Z,12.60
2022-09-20T18:11:52.897Z,12.60
2022-09-20T18:14:42.281Z,12.60
2022-09-20T18:17:45.460Z,12.60
2022-09-20T18:20:13.604Z,12.60
2022-09-20T18:22:41.587Z,12.60
2022-09-20T18:25:11.634Z,12.50
2022-09-20T18:27:39.678Z,12.50
2022-09-20T18:30:09.695Z,12.40
2022-09-20T18:32:38.531Z,12.40
2022-09-20T18:35:07.248Z,12.40
2022-09-20T18:37:36.655Z,12.40
2022-09-20T18:40:05.766Z,12.50
2022-09-20T18:42:35.355Z,12.50
2022-09-20T18:45:03.702Z,12.40
2022-09-20T18:47:35.023Z,12.50
2022-09-20T18:50:03.100Z,12.40
2022-09-20T18:52:32.008Z,12.40
2022-09-20T18:55:00.329Z,12.40
2022-09-20T18:57:29.016Z,12.40
2022-09-20T19:00:03.849Z,12.40
2022-09-20T19:02:58.682Z,12.50
2022-09-20T19:05:32.213Z,12.50
2022-09-20T19:08:12.466Z,12.50
2022-09-20T19:10:48.616Z,12.40
2022-09-20T19:13:27.840Z,12.40
2022-09-20T19:16:14.147Z,12.40
2022-09-20T19:19:03.561Z,12.30
2022-09-20T19:21:41.380Z,12.30
2022-09-20T19:24:17.912Z,12.30
2022-09-20T19:26:46.313Z,12.30
2022-09-20T19:29:20.197Z,12.30
2022-09-20T19:31:51.575Z,12.30
2022-09-20T19:34:22.594Z,12.30
2022-09-20T19:37:03.348Z,12.40
2022-09-20T19:39:45.012Z,12.40
2022-09-20T19:42:22.597Z,12.50
2022-09-20T19:45:00.273Z,12.50
2022-09-20T19:47:38.000Z,12.60
2022-09-20T19:50:16.343Z,12.60
2022-09-20T19:53:03.293Z,12.60
2022-09-20T19:55:32.398Z,12.70
2022-09-20T19:58:00.909Z,12.50
2022-09-20T20:00:30.054Z,12.70
2022-09-20T20:03:00.296Z,12.70
2022-09-20T20:05:32.076Z,12.70
2022-09-20T20:08:14.891Z,12.70
2022-09-20T20:10:54.199Z,12.70
2022-09-20T20:13:49.539Z,12.70
2022-09-20T20:16:25.939Z,12.70
2022-09-20T20:19:10.608Z,12.80
2022-09-20T20:21:46.293Z,12.80
2022-09-20T20:24:24.737Z,12.70
2022-09-20T20:26:52.925Z,12.70
2022-09-20T20:29:21.010Z,12.70
2022-09-20T20:31:51.913Z,12.60
2022-09-20T20:34:21.194Z,12.60
2022-09-20T20:36:49.819Z,12.60
2022-09-20T20:39:17.985Z,12.60
2022-09-20T20:41:52.442Z,12.50
2022-09-20T20:44:49.310Z,12.30
2022-09-20T20:47:17.332Z,12.30
2022-09-20T20:49:49.562Z,12.20
2022-09-20T20:52:20.598Z,12.20
2022-09-20T20:54:48.831Z,12.20
2022-09-20T20:57:18.973Z,12.10
2022-09-20T20:59:47.363Z,12.10
2022-09-20T21:02:15.311Z,12.20
2022-09-20T21:04:43.279Z,12.10
2022-09-20T21:07:12.793Z,12.10
2022-09-20T21:09:40.805Z,12.10
2022-09-20T21:12:09.398Z,12.00
2022-09-20T21:14:38.222Z,12.10
2022-09-20T21:17:09.369Z,12.00
2022-09-20T21:19:37.414Z,12.00
2022-09-20T21:22:08.159Z,12.00
2022-09-20T21:24:37.543Z,11.90
2022-09-20T21:27:05.878Z,11.90
2022-09-20T21:29:34.642Z,11.90
2022-09-20T21:32:02.929Z,11.90
2022-09-20T21:34:30.916Z,11.80
2022-09-20T21:36:59.057Z,11.80
2022-09-20T21:39:27.159Z,11.90
2022-09-20T21:41:57.432Z,11.80
2022-09-20T21:44:25.797Z,11.80
2022-09-20T21:46:53.700Z,11.70
2022-09-20T21:49:21.670Z,11.80
2022-09-20T21:51:52.052Z,11.80
2022-09-20T21:54:20.050Z,11.80
2022-09-20T21:56:53.017Z,11.70
2022-09-20T21:59:22.923Z,11.70
2022-09-20T22:01:50.894Z,11.70
2022-09-20T22:04:18.969Z,11.70
2022-09-20T22:06:47.197Z,11.70
2022-09-20T22:09:16.675Z,11.60
2022-09-20T22:11:46.269Z,11.60
2022-09-20T22:14:16.260Z,11.70
2022-09-20T22:16:47.711Z,11.70
2022-09-20T22:19:17.613Z,11.70
2022-09-20T22:21:47.178Z,11.60
2022-09-20T22:24:16.145Z,11.50
2022-09-20T22:26:49.380Z,11.50
2022-09-20T22:29:18.501Z,11.50
2022-09-20T22:31:49.993Z,11.60
2022-09-20T22:34:19.725Z,11.60
2022-09-20T22:36:48.164Z,11.50
2022-09-20T22:39:17.084Z,11.40
2022-09-20T22:41:47.871Z,11.50
2022-09-20T22:44:16.350Z,11.50
2022-09-20T22:46:48.866Z,11.50
2022-09-20T22:49:16.803Z,11.40
2022-09-20T22:51:44.728Z,11.40
2022-09-20T22:54:14.165Z,11.40
2022-09-20T22:56:42.558Z,11.30
2022-09-20T22:59:12.301Z,11.20
2022-09-20T23:01:42.565Z,11.20
2022-09-20T23:04:13.983Z,11.10
2022-09-20T23:06:43.642Z,11.00
2022-09-20T23:09:13.330Z,11.00
2022-09-20T23:11:42.808Z,10.90
2022-09-20T23:14:13.127Z,10.80
2022-09-20T23:16:45.073Z,10.70
2022-09-20T23:19:15.055Z,10.70
2022-09-20T23:21:44.209Z,10.60
2022-09-20T23:24:14.061Z,10.60
2022-09-20T23:26:43.362Z,10.50
2022-09-20T23:29:13.063Z,10.50
2022-09-20T23:31:45.585Z,10.40
2022-09-20T23:34:16.845Z,10.30
2022-09-20T23:36:45.891Z,10.30
2022-09-20T23:39:16.918Z,10.20
2022-09-20T23:41:50.603Z,10.20
2022-09-20T23:44:19.269Z,10.10
2022-09-20T23:46:47.402Z,10.10
2022-09-20T23:49:18.646Z,10.10
2022-09-20T23:51:49.411Z,10.10
2022-09-20T23:54:17.363Z,10.10
2022-09-20T23:56:46.191Z,9.70
2022-09-20T23:59:14.252Z,9.70
